createdAt,value
2023-02-25T00:00:48.747Z,55.79
2023-02-25T00:03:19.501Z,56.17
2023-02-25T00:05:47.769Z,55.87
2023-02-25T00:08:16.430Z,55.93
2023-02-25T00:10:44.117Z,55.67
2023-02-25T00:13:18.208Z,55.67
2023-02-25T00:15:46.280Z,55.40
2023-02-25T00:18:13.624Z,56.11
2023-02-25T00:20:41.290Z,56.58
2023-02-25T00:23:08.973Z,55.79
2023-02-25T00:25:36.574Z,55.58
2023-02-25T00:28:06.244Z,55.75
2023-02-25T00:30:34.960Z,55.45
2023-02-25T00:33:02.467Z,55.51
2023-02-25T00:35:29.949Z,55.18
2023-02-25T00:38:13.715Z,55.51
2023-02-25T00:40:43.330Z,55.49
2023-02-25T00:43:11.151Z,55.73
2023-02-25T00:45:40.500Z,55.72
2023-02-25T00:48:08.476Z,55.49
2023-02-25T00:50:39.581Z,55.87
2023-02-25T00:53:06.949Z,55.08
2023-02-25T00:55:34.463Z,55.21
2023-02-25T00:58:02.486Z,54.91
2023-02-25T01:00:31.551Z,54.82
2023-02-25T01:03:01.973Z,54.81
2023-02-25T01:05:32.221Z,54.64
2023-02-25T01:07:59.838Z,54.47
2023-02-25T01:10:28.250Z,54.20
2023-02-25T01:12:55.642Z,53.97
2023-02-25T01:15:23.031Z,54.00
2023-02-25T01:17:50.810Z,54.46
2023-02-25T01:20:19.926Z,54.74
2023-02-25T01:22:47.402Z,54.83
2023-02-25T01:25:17.537Z,54.88
2023-02-25T01:27:44.868Z,54.45
2023-02-25T01:30:12.588Z,54.42
2023-02-25T01:32:40.435Z,54.60
2023-02-25T01:35:08.601Z,53.81
2023-02-25T01:37:36.211Z,53.93
2023-02-25T01:40:06.096Z,53.87
2023-02-25T01:42:35.047Z,53.24
2023-02-25T01:45:20.309Z,53.47
2023-02-25T01:48:12.455Z,53.49
2023-02-25T01:50:47.476Z,53.94
2023-02-25T01:53:16.191Z,53.82
2023-02-25T01:55:43.840Z,53.99
2023-02-25T01:58:12.375Z,54.09
2023-02-25T02:00:40.613Z,54.24
2023-02-25T02:03:16.140Z,54.15
2023-02-25T02:06:07.654Z,54.49
2023-02-25T02:08:36.034Z,54.20
2023-02-25T02:11:04.048Z,54.35
2023-02-25T02:13:34.457Z,54.25
2023-02-25T02:16:36.463Z,54.07
2023-02-25T02:19:22.470Z,54.40
2023-02-25T02:22:00.532Z,54.04
2023-02-25T02:24:40.359Z,54.63
2023-02-25T02:27:28.942Z,54.56
2023-02-25T02:30:27.021Z,54.36
2023-02-25T02:33:19.746Z,54.09
2023-02-25T02:36:12.330Z,54.51
2023-02-25T02:38:49.835Z,54.72
2023-02-25T02:41:35.169Z,54.81
2023-02-25T02:44:10.064Z,55.02
2023-02-25T02:46:45.284Z,54.72
2023-02-25T02:49:18.132Z,55.02
2023-02-25T02:51:49.973Z,55.17
2023-02-25T02:54:18.314Z,55.29
2023-02-25T02:56:48.070Z,55.76
2023-02-25T02:59:21.464Z,55.47
2023-02-25T03:01:52.846Z,54.92
2023-02-25T03:04:24.889Z,55.29
2023-02-25T03:06:56.514Z,55.52
2023-02-25T03:09:32.881Z,55.69
2023-02-25T03:12:00.698Z,55.41
2023-02-25T03:14:28.196Z,55.46
2023-02-25T03:17:07.747Z,55.76
2023-02-25T03:19:53.166Z,56.08
2023-02-25T03:22:27.736Z,55.84
2023-02-25T03:25:15.259Z,55.14
2023-02-25T03:27:44.963Z,55.17
2023-02-25T03:30:17.551Z,54.81
2023-02-25T03:33:08.258Z,54.95
2023-02-25T03:35:37.650Z,54.94
2023-02-25T03:38:08.696Z,54.75
2023-02-25T03:40:37.980Z,54.81
2023-02-25T03:43:10.500Z,54.59
2023-02-25T03:45:40.003Z,54.60
2023-02-25T03:48:08.085Z,54.65
2023-02-25T03:50:39.055Z,54.37
2023-02-25T03:53:07.259Z,54.63
2023-02-25T03:55:39.010Z,54.82
2023-02-25T03:58:09.805Z,54.33
2023-02-25T04:00:38.873Z,54.46
2023-02-25T04:03:06.675Z,53.90
2023-02-25T04:05:35.987Z,53.75
2023-02-25T04:08:03.645Z,53.98
2023-02-25T04:10:31.989Z,53.77
2023-02-25T04:13:00.393Z,53.62
2023-02-25T04:15:28.975Z,53.43
2023-02-25T04:17:56.729Z,53.77
2023-02-25T04:20:24.184Z,53.80
2023-02-25T04:22:51.633Z,53.97
2023-02-25T04:25:19.278Z,54.23
2023-02-25T04:27:46.717Z,54.92
2023-02-25T04:30:17.017Z,54.49
2023-02-25T04:32:44.757Z,54.30
2023-02-25T04:35:12.264Z,53.95
2023-02-25T04:37:41.231Z,53.83
2023-02-25T04:40:14.450Z,55.11
2023-02-25T04:42:42.677Z,54.95
2023-02-25T04:45:11.570Z,54.90
2023-02-25T04:47:39.324Z,54.56
2023-02-25T04:50:08.358Z,55.02
2023-02-25T04:52:36.517Z,55.20
2023-02-25T04:55:04.794Z,55.24
2023-02-25T04:57:32.201Z,55.19
2023-02-25T04:59:59.836Z,56.30
2023-02-25T05:02:27.231Z,57.58
2023-02-25T05:04:54.631Z,57.85
2023-02-25T05:07:23.138Z,57.66
2023-02-25T05:09:51.848Z,57.44
2023-02-25T05:12:19.238Z,57.44
2023-02-25T05:14:47.585Z,58.94
2023-02-25T05:17:15.852Z,57.97
2023-02-25T05:19:43.325Z,59.34
2023-02-25T05:22:10.999Z,59.84
2023-02-25T05:24:39.089Z,59.69
2023-02-25T05:27:06.646Z,60.10
2023-02-25T05:29:35.972Z,60.03
2023-02-25T05:32:03.646Z,60.36
2023-02-25T05:34:31.181Z,61.55
2023-02-25T05:36:58.863Z,61.33
2023-02-25T05:39:26.281Z,61.66
2023-02-25T05:41:54.755Z,61.13
2023-02-25T05:44:22.381Z,61.28
2023-02-25T05:46:49.960Z,61.04
2023-02-25T05:49:17.369Z,60.61
2023-02-25T05:51:45.043Z,60.26
2023-02-25T05:54:12.423Z,60.39
2023-02-25T05:56:39.754Z,60.21
2023-02-25T05:59:07.457Z,60.14
2023-02-25T06:01:34.792Z,60.81
2023-02-25T06:04:02.431Z,60.29
2023-02-25T06:06:31.828Z,61.39
2023-02-25T06:08:59.209Z,61.79
2023-02-25T06:11:29.473Z,60.61
2023-02-25T06:13:58.064Z,61.52
2023-02-25T06:16:32.660Z,62.23
2023-02-25T06:19:01.693Z,64.06
2023-02-25T06:21:29.882Z,65.23
2023-02-25T06:23:57.226Z,65.42
2023-02-25T06:26:25.148Z,65.53
2023-02-25T06:28:53.566Z,67.50
2023-02-25T06:31:23.264Z,67.39
2023-02-25T06:33:51.553Z,66.41
2023-02-25T06:36:21.505Z,66.39
2023-02-25T06:38:49.429Z,66.71
2023-02-25T06:41:20.650Z,67.09
2023-02-25T06:43:52.066Z,67.14
2023-02-25T06:46:22.932Z,67.65
2023-02-25T06:48:50.583Z,67.91
2023-02-25T06:51:17.946Z,68.41
2023-02-25T06:53:47.417Z,67.51
2023-02-25T06:56:15.803Z,67.19
2023-02-25T06:58:43.405Z,67.81
2023-02-25T07:01:14.002Z,68.22
2023-02-25T07:03:43.502Z,67.04
2023-02-25T07:06:11.902Z,66.85
2023-02-25T07:08:39.540Z,66.79
2023-02-25T07:11:15.157Z,65.75
2023-02-25T07:13:43.944Z,65.88
2023-02-25T07:16:12.809Z,65.17
2023-02-25T07:18:41.528Z,64.57
2023-02-25T07:21:09.495Z,64.10
2023-02-25T07:23:36.953Z,63.90
2023-02-25T07:26:05.518Z,63.29
2023-02-25T07:28:33.513Z,64.64
2023-02-25T07:31:02.210Z,63.43
2023-02-25T07:33:30.404Z,63.28
2023-02-25T07:35:58.322Z,63.29
2023-02-25T07:38:25.660Z,63.42
2023-02-25T07:40:53.227Z,62.97
2023-02-25T07:43:20.913Z,62.96
2023-02-25T07:45:51.081Z,62.47
2023-02-25T07:48:18.479Z,61.28
2023-02-25T07:50:46.322Z,61.82
2023-02-25T07:53:13.725Z,61.58
2023-02-25T07:55:44.975Z,60.40
2023-02-25T07:58:13.788Z,61.98
2023-02-25T08:00:41.328Z,61.88
2023-02-25T08:03:08.979Z,61.89
2023-02-25T08:05:37.101Z,61.39
2023-02-25T08:08:05.376Z,60.99
2023-02-25T08:10:33.106Z,61.56
2023-02-25T08:13:00.588Z,61.98
2023-02-25T08:15:27.987Z,61.65
2023-02-25T08:17:55.848Z,62.61
2023-02-25T08:20:23.386Z,62.71
2023-02-25T08:22:50.812Z,62.31
2023-02-25T08:25:18.425Z,62.86
2023-02-25T08:27:45.817Z,63.10
2023-02-25T08:30:13.313Z,63.08
2023-02-25T08:32:41.943Z,62.46
2023-02-25T08:35:09.930Z,61.82
2023-02-25T08:37:37.376Z,64.05
2023-02-25T08:40:10.277Z,61.59
2023-02-25T08:42:37.995Z,61.19
2023-02-25T08:45:06.058Z,61.18
2023-02-25T08:47:33.616Z,62.92
2023-02-25T08:50:01.131Z,58.66
2023-02-25T08:52:33.734Z,59.37
2023-02-25T08:55:01.986Z,59.20
2023-02-25T08:57:29.986Z,58.41
2023-02-25T08:59:57.413Z,58.97
2023-02-25T09:02:24.777Z,59.17
2023-02-25T09:04:52.493Z,58.17
2023-02-25T09:07:20.420Z,57.20
2023-02-25T09:09:47.867Z,57.96
2023-02-25T09:12:15.588Z,56.97
2023-02-25T09:14:43.278Z,56.02
2023-02-25T09:17:10.676Z,55.72
2023-02-25T09:19:38.910Z,56.03
2023-02-25T09:22:07.271Z,55.62
2023-02-25T09:24:35.130Z,54.81
2023-02-25T09:27:07.982Z,54.35
2023-02-25T09:29:36.591Z,54.54
2023-02-25T09:32:05.327Z,55.02
2023-02-25T09:34:35.969Z,54.92
2023-02-25T09:37:04.700Z,54.98
2023-02-25T09:39:32.181Z,54.67
2023-02-25T09:42:09.296Z,54.63
2023-02-25T09:44:40.817Z,54.34
2023-02-25T09:47:27.012Z,55.09
2023-02-25T09:49:58.549Z,54.83
2023-02-25T09:52:28.883Z,54.52
2023-02-25T09:55:00.759Z,53.65
2023-02-25T09:57:29.674Z,54.03
2023-02-25T09:59:57.395Z,53.77
2023-02-25T10:02:40.973Z,52.98
2023-02-25T10:05:39.327Z,53.20
2023-02-25T10:08:20.933Z,53.20
2023-02-25T10:11:13.521Z,51.70
2023-02-25T10:13:48.818Z,52.54
2023-02-25T10:16:50.704Z,51.78
2023-02-25T10:19:43.032Z,51.69
2023-02-25T10:22:29.435Z,51.22
2023-02-25T10:25:18.872Z,51.31
2023-02-25T10:28:16.425Z,49.25
2023-02-25T10:31:05.699Z,49.37
2023-02-25T10:33:40.417Z,48.16
2023-02-25T10:36:10.354Z,48.34
2023-02-25T10:38:52.177Z,47.43
2023-02-25T10:41:26.638Z,48.07
2023-02-25T10:43:55.313Z,47.65
2023-02-25T10:46:41.606Z,46.90
2023-02-25T10:49:16.734Z,46.98
2023-02-25T10:52:04.327Z,44.66
2023-02-25T10:54:46.203Z,44.58
2023-02-25T10:57:28.299Z,43.49
2023-02-25T11:00:01.848Z,42.50
2023-02-25T11:02:31.446Z,42.47
2023-02-25T11:04:59.241Z,42.62
2023-02-25T11:07:38.637Z,41.17
2023-02-25T11:10:17.952Z,41.31
2023-02-25T11:12:45.339Z,40.76
2023-02-25T11:15:44.300Z,40.49
2023-02-25T11:18:12.207Z,39.14
2023-02-25T11:20:40.122Z,40.56
2023-02-25T11:23:20.614Z,37.67
2023-02-25T11:25:48.322Z,39.14
2023-02-25T11:28:37.118Z,38.13
2023-02-25T11:31:26.497Z,39.17
2023-02-25T11:33:59.142Z,39.25
2023-02-25T11:36:30.593Z,40.28
2023-02-25T11:39:14.989Z,40.48
2023-02-25T11:41:44.722Z,40.46
2023-02-25T11:44:31.617Z,40.07
2023-02-25T11:47:05.431Z,40.10
2023-02-25T11:50:05.055Z,38.38
2023-02-25T11:52:41.164Z,38.34
2023-02-25T11:55:17.997Z,39.72
2023-02-25T11:58:24.942Z,39.44
2023-02-25T12:01:16.051Z,38.76
2023-02-25T12:04:07.105Z,39.58
2023-02-25T12:06:41.146Z,38.78
2023-02-25T12:09:30.411Z,38.21
2023-02-25T12:12:18.932Z,38.35
2023-02-25T12:15:24.156Z,37.82
2023-02-25T12:18:23.995Z,36.35
2023-02-25T12:21:15.609Z,37.52
2023-02-25T12:23:46.026Z,36.95
2023-02-25T12:26:28.113Z,35.62
2023-02-25T12:29:13.757Z,35.04
2023-02-25T12:32:19.085Z,35.14
2023-02-25T12:34:52.434Z,35.18
2023-02-25T12:37:32.067Z,34.24
2023-02-25T12:40:08.156Z,34.82
2023-02-25T12:42:54.343Z,35.07
2023-02-25T12:45:43.381Z,34.69
2023-02-25T12:48:46.714Z,33.80
2023-02-25T12:51:23.260Z,33.93
2023-02-25T12:54:11.416Z,34.41
2023-02-25T12:57:03.422Z,34.94
2023-02-25T12:59:40.749Z,35.08
2023-02-25T13:02:26.335Z,33.91
2023-02-25T13:05:07.954Z,33.45
2023-02-25T13:08:03.682Z,33.38
2023-02-25T13:10:45.191Z,34.56
2023-02-25T13:13:21.915Z,34.82
2023-02-25T13:16:04.817Z,35.29
2023-02-25T13:18:50.855Z,36.34
2023-02-25T13:21:33.921Z,36.56
2023-02-25T13:24:28.428Z,36.32
2023-02-25T13:26:58.980Z,36.07
2023-02-25T13:29:28.975Z,34.92
2023-02-25T13:32:17.870Z,34.37
2023-02-25T13:35:23.117Z,34.27
2023-02-25T13:38:00.022Z,35.51
2023-02-25T13:41:08.919Z,35.20
2023-02-25T13:43:55.373Z,35.32
2023-02-25T13:46:37.594Z,33.64
2023-02-25T13:49:05.216Z,34.69
2023-02-25T13:52:07.116Z,33.07
2023-02-25T13:55:13.812Z,33.61
2023-02-25T13:57:47.100Z,32.70
2023-02-25T14:00:52.152Z,32.57
2023-02-25T14:03:46.780Z,32.80
2023-02-25T14:06:23.418Z,32.94
2023-02-25T14:09:04.529Z,33.78
2023-02-25T14:11:36.957Z,34.24
2023-02-25T14:14:19.843Z,34.37
2023-02-25T14:17:04.680Z,35.03
2023-02-25T14:20:00.737Z,35.98
2023-02-25T14:22:36.193Z,36.14
2023-02-25T14:25:19.601Z,36.00
2023-02-25T14:28:06.784Z,35.64
2023-02-25T14:30:50.149Z,35.76
2023-02-25T14:33:46.100Z,35.15
2023-02-25T14:36:51.231Z,34.90
2023-02-25T14:39:33.564Z,35.75
2023-02-25T14:42:13.667Z,35.98
2023-02-25T14:44:58.409Z,35.60
2023-02-25T14:47:35.455Z,35.69
2023-02-25T14:50:16.115Z,36.15
2023-02-25T14:53:12.936Z,36.34
2023-02-25T14:55:49.016Z,35.46
2023-02-25T14:58:35.705Z,34.49
2023-02-25T15:01:26.950Z,34.78
2023-02-25T15:04:00.326Z,34.84
2023-02-25T15:06:58.878Z,34.90
2023-02-25T15:10:08.670Z,35.04
2023-02-25T15:12:48.618Z,34.97
2023-02-25T15:15:25.028Z,35.33
2023-02-25T15:18:13.731Z,35.68
2023-02-25T15:20:43.901Z,36.02
2023-02-25T15:23:45.076Z,35.92
2023-02-25T15:26:19.057Z,35.53
2023-02-25T15:28:48.278Z,36.20
2023-02-25T15:31:28.516Z,36.42
2023-02-25T15:34:20.898Z,36.58
2023-02-25T15:36:50.168Z,36.70
2023-02-25T15:39:42.682Z,35.74
2023-02-25T15:42:11.922Z,35.45
2023-02-25T15:44:41.338Z,35.54
2023-02-25T15:47:23.913Z,35.43
2023-02-25T15:49:52.587Z,35.95
2023-02-25T15:52:55.389Z,36.33
2023-02-25T15:55:32.176Z,36.60
2023-02-25T15:57:59.505Z,36.69
2023-02-25T16:00:45.738Z,36.76
2023-02-25T16:03:31.594Z,37.16
2023-02-25T16:06:01.391Z,37.59
2023-02-25T16:08:49.458Z,37.14
2023-02-25T16:11:25.480Z,37.63
2023-02-25T16:13:53.635Z,37.44
2023-02-25T16:16:23.007Z,37.37
2023-02-25T16:18:52.129Z,37.33
2023-02-25T16:21:40.180Z,37.54
2023-02-25T16:24:11.806Z,38.27
2023-02-25T16:27:00.135Z,38.49
2023-02-25T16:29:33.715Z,38.61
2023-02-25T16:32:20.903Z,38.16
2023-02-25T16:34:57.285Z,38.57
2023-02-25T16:37:43.788Z,38.64
2023-02-25T16:40:37.715Z,38.52
2023-02-25T16:43:06.226Z,38.24
2023-02-25T16:45:38.009Z,38.10
2023-02-25T16:48:16.788Z,38.40
2023-02-25T16:50:48.769Z,38.41
2023-02-25T16:53:20.196Z,38.15
2023-02-25T16:55:47.763Z,37.86
2023-02-25T16:58:15.037Z,38.03
2023-02-25T17:01:03.845Z,37.94
2023-02-25T17:03:41.857Z,38.04
2023-02-25T17:06:20.282Z,38.20
2023-02-25T17:08:50.247Z,38.24
2023-02-25T17:11:25.069Z,38.55
2023-02-25T17:13:55.969Z,38.50
2023-02-25T17:16:31.724Z,38.75
2023-02-25T17:19:03.980Z,38.54
2023-02-25T17:21:36.796Z,38.69
2023-02-25T17:24:07.744Z,38.78
2023-02-25T17:26:43.084Z,39.15
2023-02-25T17:29:12.637Z,38.95
2023-02-25T17:31:46.108Z,39.39
2023-02-25T17:34:16.685Z,39.36
2023-02-25T17:36:45.135Z,39.72
2023-02-25T17:39:16.417Z,39.04
2023-02-25T17:41:45.277Z,39.85
2023-02-25T17:44:42.538Z,40.06
2023-02-25T17:47:12.760Z,40.72
2023-02-25T17:49:40.202Z,41.00
2023-02-25T17:52:18.405Z,40.88
2023-02-25T17:54:48.881Z,41.12
2023-02-25T17:57:18.797Z,41.75
2023-02-25T17:59:52.494Z,42.31
2023-02-25T18:02:23.075Z,42.81
2023-02-25T18:04:53.948Z,43.29
2023-02-25T18:07:24.143Z,44.03
2023-02-25T18:09:51.810Z,44.61
2023-02-25T18:12:31.637Z,45.55
2023-02-25T18:15:22.754Z,45.67
2023-02-25T18:17:54.630Z,46.18
2023-02-25T18:20:37.033Z,45.85
2023-02-25T18:23:13.700Z,45.54
2023-02-25T18:25:43.102Z,45.10
2023-02-25T18:28:18.782Z,45.08
2023-02-25T18:30:46.546Z,44.88
2023-02-25T18:33:13.965Z,44.90
2023-02-25T18:35:44.044Z,44.68
2023-02-25T18:38:18.706Z,45.32
2023-02-25T18:40:47.194Z,45.09
2023-02-25T18:43:20.974Z,45.19
2023-02-25T18:45:48.786Z,59.06
2023-02-25T18:48:16.445Z,46.13
2023-02-25T18:50:46.756Z,45.05
2023-02-25T18:53:15.647Z,45.03
2023-02-25T18:55:43.470Z,45.11
2023-02-25T18:58:14.813Z,45.85
2023-02-25T19:00:44.092Z,46.33
2023-02-25T19:03:15.645Z,46.02
2023-02-25T19:05:43.859Z,46.54
2023-02-25T19:08:14.457Z,47.05
2023-02-25T19:10:43.625Z,47.14
2023-02-25T19:13:20.586Z,47.40
2023-02-25T19:15:48.236Z,47.40
2023-02-25T19:18:16.827Z,48.75
2023-02-25T19:20:44.617Z,48.38
2023-02-25T19:23:14.858Z,48.45
2023-02-25T19:25:43.712Z,47.82
2023-02-25T19:28:11.427Z,48.04
2023-02-25T19:30:41.693Z,48.22
2023-02-25T19:33:11.067Z,49.04
2023-02-25T19:35:41.090Z,48.33
2023-02-25T19:38:11.624Z,48.34
2023-02-25T19:40:39.424Z,47.99
2023-02-25T19:43:06.805Z,47.89
2023-02-25T19:45:34.366Z,48.00
2023-02-25T19:48:02.391Z,47.81
2023-02-25T19:50:32.220Z,47.45
2023-02-25T19:53:00.694Z,47.71
2023-02-25T19:55:28.764Z,47.28
2023-02-25T19:57:56.387Z,62.09
2023-02-25T20:00:25.366Z,48.04
2023-02-25T20:02:53.880Z,47.19
2023-02-25T20:05:22.486Z,47.07
2023-02-25T20:07:50.662Z,47.19
2023-02-25T20:10:18.981Z,46.86
2023-02-25T20:12:47.464Z,47.13
2023-02-25T20:15:15.520Z,47.32
2023-02-25T20:17:44.724Z,47.29
2023-02-25T20:20:13.897Z,47.36
2023-02-25T20:22:41.753Z,47.23
2023-02-25T20:25:10.522Z,46.88
2023-02-25T20:27:39.701Z,47.75
2023-02-25T20:30:08.042Z,47.86
2023-02-25T20:32:35.916Z,47.79
2023-02-25T20:35:03.838Z,48.66
2023-02-25T20:37:37.285Z,48.98
2023-02-25T20:40:11.878Z,48.77
2023-02-25T20:42:39.281Z,49.49
2023-02-25T20:45:07.683Z,48.73
2023-02-25T20:47:36.448Z,49.73
2023-02-25T20:50:05.587Z,49.60
2023-02-25T20:52:33.463Z,49.60
2023-02-25T20:55:01.101Z,49.80
2023-02-25T20:57:28.841Z,49.48
2023-02-25T20:59:56.514Z,49.25
2023-02-25T21:02:23.990Z,49.30
2023-02-25T21:04:52.005Z,49.58
2023-02-25T21:07:19.805Z,49.26
2023-02-25T21:09:47.402Z,49.30
2023-02-25T21:12:14.826Z,49.37
2023-02-25T21:14:42.585Z,50.10
2023-02-25T21:17:13.559Z,49.42
2023-02-25T21:19:41.267Z,49.72
2023-02-25T21:22:09.067Z,49.12
2023-02-25T21:24:36.996Z,49.31
2023-02-25T21:27:04.467Z,49.34
2023-02-25T21:29:32.492Z,49.03
2023-02-25T21:32:00.122Z,49.47
2023-02-25T21:34:27.675Z,49.56
2023-02-25T21:36:57.517Z,50.26
2023-02-25T21:39:25.995Z,50.29
2023-02-25T21:41:53.621Z,51.82
2023-02-25T21:44:21.345Z,50.70
2023-02-25T21:46:48.813Z,50.82
2023-02-25T21:49:16.264Z,51.59
2023-02-25T21:51:43.933Z,51.13
2023-02-25T21:54:12.125Z,50.85
2023-02-25T21:56:40.555Z,50.54
2023-02-25T21:59:08.284Z,50.16
2023-02-25T22:01:38.642Z,50.47
2023-02-25T22:04:08.596Z,50.30
2023-02-25T22:06:36.119Z,50.43
2023-02-25T22:09:03.820Z,50.84
2023-02-25T22:11:33.885Z,51.02
2023-02-25T22:14:02.943Z,51.32
2023-02-25T22:16:30.602Z,51.39
2023-02-25T22:18:58.736Z,51.29
2023-02-25T22:21:29.073Z,51.58
2023-02-25T22:23:58.601Z,51.30
2023-02-25T22:26:31.656Z,51.86
2023-02-25T22:29:01.839Z,52.48
2023-02-25T22:31:29.824Z,53.14
2023-02-25T22:33:57.591Z,53.03
2023-02-25T22:36:25.910Z,53.34
2023-02-25T22:38:53.763Z,52.88
2023-02-25T22:41:28.188Z,53.16
2023-02-25T22:43:57.296Z,52.63
2023-02-25T22:46:29.940Z,54.37
2023-02-25T22:48:57.718Z,53.81
2023-02-25T22:51:33.877Z,53.37
2023-02-25T22:54:02.046Z,54.04
2023-02-25T22:56:29.453Z,53.84
2023-02-25T22:58:56.863Z,53.57
2023-02-25T23:01:24.911Z,53.47
2023-02-25T23:03:53.615Z,53.32
2023-02-25T23:06:34.256Z,52.47
2023-02-25T23:09:09.724Z,52.73
2023-02-25T23:11:40.143Z,52.19
2023-02-25T23:14:07.760Z,51.96
2023-02-25T23:16:40.424Z,51.88
2023-02-25T23:19:09.529Z,51.97
2023-02-25T23:21:38.713Z,51.62
2023-02-25T23:24:07.611Z,50.99
2023-02-25T23:26:40.916Z,52.05
2023-02-25T23:29:09.931Z,52.89
2023-02-25T23:31:41.689Z,52.17
2023-02-25T23:34:12.869Z,51.96
2023-02-25T23:36:42.989Z,51.51
2023-02-25T23:39:11.969Z,50.72
2023-02-25T23:41:39.804Z,50.91
2023-02-25T23:44:10.877Z,50.49
2023-02-25T23:46:39.551Z,50.47
2023-02-25T23:49:07.410Z,50.80
2023-02-25T23:51:35.811Z,50.70
2023-02-25T23:54:05.845Z,50.71
2023-02-25T23:56:34.212Z,50.61
2023-02-25T23:59:01.832Z,50.10
